Time;durP1;ratioP1;P1;durP2;ratioP2;P2;SDS_P1;SDS_P2;PMS_P1;PMS_P2;Temp;Humidity;BMP_temperature;BMP_pressure;BME280_temperature;BME280_humidity;BME280_pressure;Samples;Min_cycle;Max_cycle;Signal;HPM_P1;HPM_P2
2024/01/15 00:01:45;;;;;;;83.32;38.85;;;51.20;2227.20;;;;;;5033393;28;20017;-74
2024/01/15 00:04:11;;;;;;;118.38;56.15;;;51.20;2227.20;;;;;;5033678;28;20024;-74
2024/01/15 00:06:39;;;;;;;71.57;35.65;;;51.20;2227.20;;;;;;5032031;28;20376;-73
2024/01/15 00:09:06;;;;;;;70.78;35.45;;;51.20;2227.20;;;;;;5032993;28;20029;-64
2024/01/15 00:11:32;;;;;;;108.30;52.20;;;51.20;2227.20;;;;;;5036153;28;20030;-66
2024/01/15 00:13:58;;;;;;;80.88;40.35;;;51.30;2227.20;;;;;;5032735;28;20030;-65
2024/01/15 00:16:24;;;;;;;79.28;38.78;;;51.30;2227.20;;;;;;5032507;28;20100;-65
2024/01/15 00:18:50;;;;;;;86.40;39.78;;;51.30;2227.20;;;;;;5028516;28;20108;-65
2024/01/15 00:21:16;;;;;;;169.93;87.60;;;51.20;2227.20;;;;;;5031345;28;20029;-69
2024/01/15 00:23:44;;;;;;;121.88;64.25;;;51.30;2227.20;;;;;;5031479;28;20648;-64
2024/01/15 00:26:11;;;;;;;181.13;90.57;;;51.30;2227.20;;;;;;5031933;28;20048;-65
2024/01/15 00:28:37;;;;;;;247.27;113.63;;;51.40;2227.20;;;;;;5032111;28;20064;-65
2024/01/15 00:31:06;;;;;;;79.22;38.55;;;51.40;2227.20;;;;;;5032217;28;20375;-65
2024/01/15 00:33:33;;;;;;;143.48;60.70;;;51.40;2227.20;;;;;;5031646;28;20081;-64
2024/01/15 00:35:59;;;;;;;87.50;42.35;;;51.40;2227.20;;;;;;5014200;28;20033;-64
2024/01/15 00:38:25;;;;;;;70.55;35.15;;;51.40;2227.20;;;;;;5031827;28;20033;-66
2024/01/15 00:40:50;;;;;;;94.15;43.05;;;51.40;2227.20;;;;;;5031781;28;20029;-66
2024/01/15 00:43:18;;;;;;;80.90;40.13;;;51.30;2227.20;;;;;;5031941;28;20034;-65
2024/01/15 00:45:47;;;;;;;93.43;43.85;;;51.40;2227.20;;;;;;5027900;28;20088;-66
2024/01/15 00:48:13;;;;;;;79.43;36.53;;;51.40;2227.20;;;;;;5032360;28;20030;-65
2024/01/15 00:50:39;;;;;;;85.45;41.58;;;51.30;2227.20;;;;;;5033683;28;20483;-64
2024/01/15 00:53:05;;;;;;;78.97;39.45;;;51.30;2227.20;;;;;;5035521;28;20049;-64
2024/01/15 00:55:33;;;;;;;76.68;36.47;;;51.30;2227.20;;;;;;5032657;28;20075;-64
2024/01/15 00:57:59;;;;;;;74.50;37.17;;;51.30;2227.20;;;;;;5039189;28;20020;-65
2024/01/15 01:00:27;;;;;;;80.25;38.53;;;51.40;2227.20;;;;;;5053033;28;20550;-65
2024/01/15 01:02:53;;;;;;;76.05;37.58;;;51.40;2227.20;;;;;;5051272;28;20075;-64
2024/01/15 01:05:19;;;;;;;70.68;34.80;;;51.40;2227.20;;;;;;5035661;28;20041;-64
2024/01/15 01:07:48;;;;;;;76.18;38.05;;;51.40;2227.20;;;;;;5033797;28;20443;-66
2024/01/15 01:10:13;;;;;;;74.43;37.95;;;51.40;2227.20;;;;;;5032460;28;20033;-65
2024/01/15 01:12:39;;;;;;;72.32;35.10;;;51.50;2227.20;;;;;;5030611;28;20036;-66
2024/01/15 01:15:06;;;;;;;79.45;39.55;;;51.50;2227.20;;;;;;5031248;28;20721;-65
2024/01/15 01:17:33;;;;;;;74.68;36.83;;;51.50;2227.20;;;;;;5034273;28;20025;-64
2024/01/15 01:19:58;;;;;;;145.10;60.33;;;51.50;2227.20;;;;;;5034890;28;20039;-64
2024/01/15 01:22:24;;;;;;;73.75;36.17;;;51.50;2227.20;;;;;;5030671;28;20025;-65
2024/01/15 01:24:50;;;;;;;73.32;37.15;;;51.50;2227.20;;;;;;5034558;28;20821;-67
2024/01/15 01:27:15;;;;;;;74.70;35.50;;;51.70;2227.20;;;;;;5035550;28;20079;-63
2024/01/15 01:29:41;;;;;;;85.82;40.30;;;51.60;2227.20;;;;;;5035252;28;20491;-63
2024/01/15 01:32:07;;;;;;;81.18;38.70;;;51.70;2227.20;;;;;;5035135;28;20104;-64
2024/01/15 01:34:40;;;;;;;74.85;36.15;;;51.70;2227.20;;;;;;5037318;28;20022;-66
2024/01/15 01:37:05;;;;;;;70.90;34.78;;;51.70;2227.20;;;;;;5035216;28;20667;-64
2024/01/15 01:39:32;;;;;;;66.88;32.55;;;51.70;2227.20;;;;;;5032408;28;20034;-64
2024/01/15 01:41:58;;;;;;;65.63;32.17;;;51.70;2227.20;;;;;;5034245;28;20281;-67
2024/01/15 01:44:24;;;;;;;69.20;33.22;;;51.70;2227.20;;;;;;5034657;28;20033;-64
2024/01/15 01:46:50;;;;;;;70.05;35.20;;;51.70;2227.20;;;;;;5033959;28;20022;-64
2024/01/15 01:49:16;;;;;;;69.28;33.92;;;51.60;2227.20;;;;;;5034473;28;20117;-65
2024/01/15 01:51:42;;;;;;;68.15;34.38;;;51.60;2227.20;;;;;;5034682;28;20693;-65
2024/01/15 01:54:09;;;;;;;72.43;36.05;;;51.60;2227.20;;;;;;5034734;28;20108;-65
2024/01/15 01:56:35;;;;;;;72.68;35.65;;;51.70;2227.20;;;;;;5034431;28;20025;-64
2024/01/15 01:59:02;;;;;;;64.20;30.98;;;51.70;2227.20;;;;;;5030971;28;20062;-65
2024/01/15 02:01:29;;;;;;;70.97;34.72;;;51.70;2227.20;;;;;;5034494;28;20037;-65
2024/01/15 02:03:56;;;;;;;63.10;32.00;;;51.70;2227.20;;;;;;5015483;28;20029;-63
2024/01/15 02:06:23;;;;;;;64.38;32.33;;;51.80;2227.20;;;;;;5032831;28;20058;-65
2024/01/15 02:08:49;;;;;;;59.95;29.05;;;51.80;2227.20;;;;;;5031313;28;20040;-66
2024/01/15 02:11:15;;;;;;;63.42;30.85;;;51.80;2227.20;;;;;;5034496;28;20033;-65
2024/01/15 02:13:41;;;;;;;62.08;32.65;;;51.80;2227.20;;;;;;5034641;28;20527;-64
2024/01/15 02:16:07;;;;;;;61.95;27.00;;;51.80;2227.20;;;;;;5034802;28;20483;-65
2024/01/15 02:18:42;;;;;;;71.97;33.78;;;51.80;2227.20;;;;;;5034518;28;20511;-65
2024/01/15 02:21:10;;;;;;;79.95;35.95;;;51.80;2227.20;;;;;;5034767;28;20383;-64
2024/01/15 02:23:36;;;;;;;60.47;31.08;;;51.80;2227.20;;;;;;5034238;28;20029;-66
2024/01/15 02:26:02;;;;;;;57.25;29.17;;;51.90;2227.20;;;;;;5033811;28;20080;-66
2024/01/15 02:28:28;;;;;;;55.20;28.98;;;52.00;2227.20;;;;;;5016194;28;20091;-66
2024/01/15 02:30:53;;;;;;;56.53;28.17;;;52.00;2227.20;;;;;;5034410;28;20029;-65
2024/01/15 02:33:19;;;;;;;53.47;27.73;;;52.10;2227.20;;;;;;5030856;28;20527;-64
2024/01/15 02:35:46;;;;;;;51.42;27.65;;;76.80;2227.20;;;;;;5036101;28;20022;-64
2024/01/15 02:38:12;;;;;;;52.22;25.98;;;76.90;2227.20;;;;;;5033989;28;20510;-64
2024/01/15 02:40:38;;;;;;;52.05;26.83;;;76.80;2227.20;;;;;;5034307;28;20025;-65
2024/01/15 02:43:04;;;;;;;57.97;29.00;;;76.80;2227.20;;;;;;5034273;28;20350;-65
2024/01/15 02:45:31;;;;;;;60.63;29.65;;;76.80;2227.20;;;;;;5034218;28;20064;-69
2024/01/15 02:47:56;;;;;;;55.00;27.85;;;76.90;2227.20;;;;;;5034364;28;20049;-65
2024/01/15 02:50:22;;;;;;;46.38;25.80;;;76.90;2227.20;;;;;;5031268;28;20072;-64
2024/01/15 02:52:48;;;;;;;51.15;27.10;;;76.90;2227.20;;;;;;5033072;28;20143;-64
2024/01/15 02:55:13;;;;;;;49.22;25.42;;;76.90;2227.20;;;;;;5033517;28;20017;-69
2024/01/15 02:57:39;;;;;;;53.17;27.27;;;76.90;2227.20;;;;;;5035430;28;20410;-67
2024/01/15 03:00:07;;;;;;;53.65;27.92;;;76.90;2227.20;;;;;;5036913;28;20460;-65
2024/01/15 03:02:35;;;;;;;51.47;27.00;;;76.90;2227.20;;;;;;5037028;28;20479;-68
2024/01/15 03:05:01;;;;;;;55.05;27.92;;;76.90;2227.20;;;;;;5036751;28;20383;-65
2024/01/15 03:10:50;;;;;;;50.47;27.27;;;76.90;2227.20;;;;;;5036629;28;20488;-70
2024/01/15 03:13:16;;;;;;;52.53;28.23;;;76.90;2227.20;;;;;;5036838;28;20475;-69
2024/01/15 03:15:46;;;;;;;48.33;26.10;;;76.90;2227.20;;;;;;5036755;28;20021;-65
2024/01/15 03:18:12;;;;;;;48.78;25.85;;;76.90;2227.20;;;;;;5037182;28;20471;-65
2024/01/15 03:20:39;;;;;;;47.58;25.38;;;77.00;2227.20;;;;;;5036657;28;20621;-67
2024/01/15 03:26:26;;;;;;;49.83;25.17;;;77.00;2227.20;;;;;;5033896;28;20106;-69
2024/01/15 03:28:52;;;;;;;51.25;25.08;;;77.10;2227.20;;;;;;5027643;28;20037;-65
2024/01/15 03:31:18;;;;;;;48.95;25.10;;;77.10;2227.20;;;;;;5033616;28;20091;-67
2024/01/15 03:33:44;;;;;;;64.53;28.58;;;77.10;2227.20;;;;;;5033576;28;20407;-65
2024/01/15 03:36:12;;;;;;;54.38;24.75;;;77.10;2227.20;;;;;;5033700;28;20056;-65
2024/01/15 03:38:42;;;;;;;55.33;25.73;;;77.10;2227.20;;;;;;5026638;28;20025;-65
2024/01/15 03:41:08;;;;;;;54.65;25.25;;;77.10;2227.20;;;;;;5030824;28;20357;-65
2024/01/15 03:43:34;;;;;;;46.58;23.65;;;77.20;2227.20;;;;;;5032692;28;20088;-64
2024/01/15 03:46:04;;;;;;;42.38;22.98;;;77.10;2227.20;;;;;;5032397;28;20041;-64
2024/01/15 03:48:30;;;;;;;42.40;22.55;;;77.10;2227.20;;;;;;5026534;28;20026;-64
2024/01/15 03:50:56;;;;;;;42.53;22.50;;;77.10;2227.20;;;;;;5028834;28;20057;-64
2024/01/15 03:53:22;;;;;;;45.47;22.83;;;77.10;2227.20;;;;;;5031742;28;20084;-64
2024/01/15 03:55:49;;;;;;;43.75;23.13;;;77.20;2227.20;;;;;;5032513;28;20107;-64
2024/01/15 03:58:15;;;;;;;44.58;23.25;;;77.20;2227.20;;;;;;5026331;28;20029;-63
2024/01/15 04:00:41;;;;;;;47.28;24.15;;;77.20;2227.20;;;;;;5028046;28;20115;-65
2024/01/15 04:03:06;;;;;;;47.38;24.30;;;76.80;2227.20;;;;;;5033928;28;20065;-72
2024/01/15 04:05:32;;;;;;;41.10;22.88;;;77.20;2227.20;;;;;;5033428;28;20034;-66
2024/01/15 04:08:01;;;;;;;42.45;22.70;;;77.20;2227.20;;;;;;5033141;28;20187;-74
2024/01/15 04:10:29;;;;;;;43.40;21.42;;;77.20;2227.20;;;;;;5032421;28;20036;-67
2024/01/15 04:13:00;;;;;;;41.90;22.63;;;77.10;2227.20;;;;;;5032649;28;20068;-64
2024/01/15 04:15:25;;;;;;;38.67;21.88;;;77.10;2227.20;;;;;;5029220;28;20075;-65
2024/01/15 04:17:52;;;;;;;49.17;29.58;;;77.10;2227.20;;;;;;5032668;28;20391;-74
2024/01/15 04:20:17;;;;;;;41.13;23.30;;;77.10;2227.20;;;;;;5031476;28;20034;-74
2024/01/15 04:22:44;;;;;;;41.90;23.00;;;77.10;2227.20;;;;;;5027900;28;20341;-73
2024/01/15 04:25:13;;;;;;;56.53;31.30;;;77.10;2227.20;;;;;;5030146;28;20033;-67
2024/01/15 04:27:38;;;;;;;113.32;67.15;;;77.10;2227.20;;;;;;5029134;28;20025;-69
2024/01/15 04:30:05;;;;;;;45.80;24.38;;;77.20;2227.20;;;;;;5030295;28;20033;-64
2024/01/15 04:32:30;;;;;;;39.58;22.35;;;77.10;2227.20;;;;;;5032349;28;20028;-65
2024/01/15 04:34:56;;;;;;;39.92;21.88;;;77.20;2227.20;;;;;;5029897;28;20033;-66
2024/01/15 04:37:22;;;;;;;41.90;22.90;;;77.10;2227.20;;;;;;5031058;28;20068;-65
2024/01/15 04:39:54;;;;;;;45.47;23.13;;;77.10;2227.20;;;;;;5032049;28;20693;-71
2024/01/15 04:42:21;;;;;;;44.35;22.45;;;77.00;2227.20;;;;;;5027336;28;20041;-65
2024/01/15 04:44:47;;;;;;;42.83;22.63;;;77.00;2227.20;;;;;;5031643;28;20465;-63
2024/01/15 04:47:13;;;;;;;48.53;25.88;;;77.00;2227.20;;;;;;5035158;28;20112;-65
2024/01/15 04:49:39;;;;;;;59.22;31.27;;;77.00;2227.20;;;;;;5035735;28;20056;-64
2024/01/15 04:52:05;;;;;;;49.90;27.35;;;77.10;2227.20;;;;;;5039361;28;20351;-63
2024/01/15 04:58:06;;;;;;;43.28;22.98;;;77.10;2227.20;;;;;;5031132;28;20033;-64
2024/01/15 05:00:32;;;;;;;45.03;24.35;;;77.10;2227.20;;;;;;5036093;28;20034;-64
2024/01/15 05:02:57;;;;;;;41.90;23.42;;;77.00;2227.20;;;;;;5036230;28;20022;-64
2024/01/15 05:05:23;;;;;;;42.28;23.67;;;77.10;2227.20;;;;;;5036002;28;20377;-66
2024/01/15 05:07:49;;;;;;;38.58;20.88;;;77.10;2227.20;;;;;;5035736;28;20140;-69
2024/01/15 05:10:14;;;;;;;40.63;23.30;;;77.10;2227.20;;;;;;5036309;28;20025;-65
2024/01/15 05:12:40;;;;;;;39.30;21.60;;;77.10;2227.20;;;;;;5033863;28;20056;-65
2024/01/15 05:15:06;;;;;;;40.28;22.58;;;77.10;2227.20;;;;;;5035580;28;20103;-65
2024/01/15 05:17:32;;;;;;;40.63;21.75;;;77.10;2227.20;;;;;;5035927;28;20084;-70
2024/01/15 05:19:57;;;;;;;44.20;24.30;;;77.10;2227.20;;;;;;5035725;28;20072;-64
2024/01/15 05:22:24;;;;;;;41.85;21.98;;;77.10;2227.20;;;;;;5035192;28;21395;-66
2024/01/15 05:24:50;;;;;;;39.05;20.58;;;77.20;2227.20;;;;;;5031649;28;20017;-65
2024/01/15 05:27:16;;;;;;;33.30;18.10;;;77.30;2227.20;;;;;;5035220;28;20037;-68
2024/01/15 05:29:41;;;;;;;32.97;18.40;;;77.40;2227.20;;;;;;5032659;28;20033;-64
2024/01/15 05:32:07;;;;;;;30.15;17.35;;;77.50;2227.20;;;;;;5035132;28;20119;-66
2024/01/15 05:34:32;;;;;;;30.63;16.67;;;77.50;2227.20;;;;;;5035700;28;20022;-68
2024/01/15 05:36:58;;;;;;;33.03;17.83;;;77.60;2227.20;;;;;;5035740;28;20033;-69
2024/01/15 05:39:24;;;;;;;32.42;17.00;;;77.60;2227.20;;;;;;5035889;28;20074;-70
2024/01/15 05:41:49;;;;;;;33.03;17.50;;;77.60;2227.20;;;;;;5036869;28;20040;-74
2024/01/15 05:44:15;;;;;;;37.70;19.52;;;77.60;2227.20;;;;;;5036734;28;20409;-68
2024/01/15 05:46:41;;;;;;;42.60;23.83;;;77.70;2227.20;;;;;;5021449;28;20029;-64
2024/01/15 05:49:07;;;;;;;44.05;23.70;;;77.60;2227.20;;;;;;5035504;28;20022;-63
2024/01/15 05:51:32;;;;;;;39.05;21.10;;;77.70;2227.20;;;;;;5036057;28;20770;-65
2024/01/15 05:53:58;;;;;;;41.80;22.25;;;77.60;2227.20;;;;;;5034264;28;20021;-65
2024/01/15 05:56:24;;;;;;;36.38;20.00;;;77.70;2227.20;;;;;;5034490;28;20502;-65
2024/01/15 05:58:53;;;;;;;39.92;21.58;;;77.70;2227.20;;;;;;5031940;28;20066;-68
2024/01/15 06:01:18;;;;;;;35.85;20.83;;;77.70;2227.20;;;;;;5038817;28;20025;-65
2024/01/15 06:03:44;;;;;;;41.58;25.80;;;102.40;2227.20;;;;;;5025704;28;20025;-67
2024/01/15 06:06:13;;;;;;;57.28;26.85;;;102.40;2227.20;;;;;;5042219;28;20204;-69
2024/01/15 06:08:39;;;;;;;51.83;27.90;;;102.40;2227.20;;;;;;5035587;28;20195;-66
2024/01/15 06:11:06;;;;;;;48.10;26.30;;;102.40;2227.20;;;;;;5035120;28;20028;-69
2024/01/15 06:13:32;;;;;;;57.13;34.95;;;102.40;2227.20;;;;;;5033500;28;20026;-71
2024/01/15 06:15:58;;;;;;;41.42;25.63;;;102.40;2227.20;;;;;;5034184;28;20021;-65
2024/01/15 06:18:24;;;;;;;50.92;29.77;;;102.40;2227.20;;;;;;5035557;28;20097;-65
2024/01/15 06:20:53;;;;;;;43.47;25.15;;;102.40;2227.20;;;;;;5032811;28;20061;-66
2024/01/15 06:23:21;;;;;;;50.58;26.52;;;102.40;2227.20;;;;;;5036884;28;20368;-67
2024/01/15 06:25:47;;;;;;;52.67;28.05;;;102.40;2227.20;;;;;;5039904;28;20059;-67
2024/01/15 06:28:12;;;;;;;54.35;27.23;;;102.40;2227.20;;;;;;5037185;28;20025;-71
2024/01/15 06:30:38;;;;;;;87.20;43.53;;;102.50;2227.20;;;;;;5035898;28;20060;-73
2024/01/15 06:33:04;;;;;;;478.25;130.35;;;102.40;2227.20;;;;;;5043345;28;20029;-72
2024/01/15 06:35:30;;;;;;;131.02;50.35;;;102.40;2227.20;;;;;;5036135;28;20098;-74
2024/01/15 06:37:56;;;;;;;175.82;70.80;;;102.40;2227.20;;;;;;5036353;28;20025;-74
2024/01/15 06:40:21;;;;;;;292.30;176.35;;;102.50;2227.20;;;;;;5047656;28;20033;-75
2024/01/15 06:42:50;;;;;;;98.35;54.90;;;102.60;2227.20;;;;;;5034524;28;20346;-64
2024/01/15 06:45:15;;;;;;;130.48;76.32;;;102.60;2227.20;;;;;;5034202;28;20090;-65
2024/01/15 06:47:41;;;;;;;115.80;66.40;;;102.60;2227.20;;;;;;5034682;28;20021;-67
2024/01/15 06:50:07;;;;;;;90.75;51.38;;;102.70;2227.20;;;;;;5042729;28;20435;-65
2024/01/15 06:52:34;;;;;;;122.63;67.30;;;102.70;2227.20;;;;;;5033974;28;20034;-66
2024/01/15 06:54:59;;;;;;;87.55;48.72;;;102.70;2227.20;;;;;;5032207;28;20040;-67
2024/01/15 06:57:25;;;;;;;102.07;55.67;;;102.70;2227.20;;;;;;5031756;28;20045;-65
2024/01/15 06:59:51;;;;;;;58.75;30.33;;;102.80;2227.20;;;;;;5031993;28;20103;-65
2024/01/15 07:02:16;;;;;;;58.75;30.08;;;102.70;2227.20;;;;;;5032807;28;20029;-72
2024/01/15 07:04:42;;;;;;;67.57;38.20;;;102.70;2227.20;;;;;;5033138;28;20049;-75
2024/01/15 07:07:08;;;;;;;57.47;30.85;;;102.70;2227.20;;;;;;5033330;28;20798;-74
2024/01/15 07:09:34;;;;;;;60.08;31.38;;;102.70;2227.20;;;;;;5032896;28;20061;-65
2024/01/15 07:11:59;;;;;;;148.65;67.32;;;102.70;2227.20;;;;;;5032170;28;20375;-65
2024/01/15 07:14:26;;;;;;;130.18;60.67;;;102.70;2227.20;;;;;;5031739;28;20025;-75
2024/01/15 07:16:52;;;;;;;112.28;56.95;;;102.60;2227.20;;;;;;5032062;28;20472;-71
2024/01/15 07:19:17;;;;;;;92.03;48.90;;;102.70;2227.20;;;;;;5039089;28;20113;-73
2024/01/15 07:21:43;;;;;;;114.80;58.22;;;102.60;2227.20;;;;;;5034652;28;20372;-73
2024/01/15 07:24:10;;;;;;;114.20;56.60;;;102.60;2227.20;;;;;;5041123;28;20107;-75
2024/01/15 07:26:36;;;;;;;78.32;43.03;;;102.60;2227.20;;;;;;5032828;28;20053;-68
2024/01/15 07:29:03;;;;;;;57.08;32.38;;;102.40;2227.20;;;;;;5032269;28;20025;-73
2024/01/15 07:31:29;;;;;;;108.20;55.13;;;102.50;2227.20;;;;;;5033360;28;20056;-74
2024/01/15 07:33:55;;;;;;;75.20;42.13;;;102.50;1868.80;;;;;;5032114;28;20024;-74
2024/01/15 07:36:22;;;;;;;274.25;138.38;;;102.50;2227.20;;;;;;5032705;28;20052;-71
2024/01/15 07:38:47;;;;;;;444.38;203.40;;;102.40;2227.20;;;;;;5032315;28;20029;-75
2024/01/15 07:41:14;;;;;;;265.45;115.30;;;102.40;2227.20;;;;;;5031811;28;20033;-74
2024/01/15 07:43:40;;;;;;;283.00;127.00;;;77.70;2227.20;;;;;;5032506;28;20033;-67
2024/01/15 07:46:07;;;;;;;107.03;53.97;;;77.70;2227.20;;;;;;5032079;28;20088;-76
2024/01/15 07:48:32;;;;;;;87.97;49.67;;;77.70;2227.20;;;;;;5031309;28;20040;-71
2024/01/15 07:50:58;;;;;;;141.02;72.35;;;77.70;2227.20;;;;;;5032585;28;20112;-74
2024/01/15 07:53:28;;;;;;;103.57;55.53;;;77.60;2227.20;;;;;;5032523;28;20084;-65
2024/01/15 07:55:53;;;;;;;67.05;35.30;;;77.60;2227.20;;;;;;5034544;28;20477;-73
2024/01/15 07:58:19;;;;;;;80.40;43.55;;;77.60;2227.20;;;;;;5032101;28;20037;-74
2024/01/15 08:00:45;;;;;;;78.60;41.75;;;77.60;2227.20;;;;;;5030808;28;20099;-74
2024/01/15 08:03:12;;;;;;;106.35;55.08;;;77.60;2227.20;;;;;;5032524;28;20022;-70
2024/01/15 08:05:38;;;;;;;92.68;46.40;;;77.60;2227.20;;;;;;5032576;28;20026;-74
2024/01/15 08:08:05;;;;;;;215.80;95.30;;;77.60;2227.20;;;;;;5030863;28;20045;-72
2024/01/15 08:10:30;;;;;;;213.35;93.60;;;77.60;2227.20;;;;;;5032406;28;20025;-63
2024/01/15 08:12:56;;;;;;;136.18;60.05;;;77.60;2227.20;;;;;;5032117;28;20033;-64
2024/01/15 08:15:22;;;;;;;144.38;68.43;;;77.60;2227.20;;;;;;5027879;28;20030;-64
2024/01/15 08:17:48;;;;;;;137.57;60.45;;;77.60;2176.00;;;;;;5033361;28;20041;-69
2024/01/15 08:20:15;;;;;;;111.00;53.42;;;77.70;2227.20;;;;;;5033883;28;20032;-68
2024/01/15 08:22:41;;;;;;;99.95;47.92;;;77.70;2227.20;;;;;;5033491;28;20041;-73
2024/01/15 08:25:10;;;;;;;82.40;40.22;;;102.40;2227.20;;;;;;5038337;28;20029;-67
2024/01/15 08:27:39;;;;;;;143.27;66.35;;;102.40;2227.20;;;;;;5015079;28;20052;-75
2024/01/15 08:30:05;;;;;;;147.13;92.28;;;102.40;2227.20;;;;;;5033570;28;20030;-67
2024/01/15 08:32:31;;;;;;;171.52;107.03;;;102.40;2227.20;;;;;;5033540;28;20393;-72
2024/01/15 08:34:57;;;;;;;72.20;37.65;;;102.50;2227.20;;;;;;5033357;28;20105;-67
2024/01/15 08:37:22;;;;;;;67.57;34.40;;;102.40;2227.20;;;;;;5049204;28;20438;-64
2024/01/15 08:39:48;;;;;;;60.95;33.13;;;102.40;2227.20;;;;;;5051259;28;20031;-71
2024/01/15 08:42:13;;;;;;;92.95;47.65;;;102.40;2227.20;;;;;;5052360;28;20067;-74
2024/01/15 08:44:41;;;;;;;148.93;78.78;;;102.50;2227.20;;;;;;5052235;28;20032;-74
2024/01/15 08:47:07;;;;;;;145.30;77.50;;;102.50;2227.20;;;;;;5038956;28;20060;-74
2024/01/15 08:49:33;;;;;;;96.65;54.47;;;102.60;2227.20;;;;;;5033619;28;20057;-73
2024/01/15 08:51:58;;;;;;;394.85;195.85;;;102.60;2227.20;;;;;;5031866;28;20096;-74
2024/01/15 08:54:24;;;;;;;155.82;78.32;;;102.70;2227.20;;;;;;5032732;28;20026;-74
2024/01/15 08:56:50;;;;;;;87.13;45.58;;;102.80;2227.20;;;;;;5032992;28;20052;-73
2024/01/15 08:59:16;;;;;;;118.03;64.10;;;102.80;2227.20;;;;;;5033507;28;20064;-74
2024/01/15 09:01:41;;;;;;;94.00;45.47;;;102.80;2227.20;;;;;;5032568;28;20029;-68
2024/01/15 09:04:07;;;;;;;167.32;89.95;;;102.80;2227.20;;;;;;5030578;28;20025;-66
2024/01/15 09:06:33;;;;;;;105.15;54.20;;;102.90;2227.20;;;;;;5033049;28;20079;-73
2024/01/15 09:09:00;;;;;;;71.13;37.42;;;103.00;2227.20;;;;;;5033793;28;20025;-68
2024/01/15 09:11:25;;;;;;;57.28;29.85;;;103.00;2227.20;;;;;;5032989;28;20040;-73
2024/01/15 09:13:51;;;;;;;53.83;30.52;;;103.00;2227.20;;;;;;5032966;28;20030;-74
2024/01/15 09:16:17;;;;;;;57.95;32.05;;;103.10;2227.20;;;;;;5032788;28;20029;-74
2024/01/15 09:18:43;;;;;;;89.97;48.72;;;103.10;2227.20;;;;;;5033484;28;20421;-71
2024/01/15 09:21:08;;;;;;;44.92;26.15;;;103.20;2227.20;;;;;;5033303;28;20036;-72
2024/01/15 09:23:35;;;;;;;51.35;28.77;;;103.30;2227.20;;;;;;5033094;28;20022;-66
2024/01/15 09:26:01;;;;;;;95.70;51.85;;;128.00;2252.80;;;;;;5032010;28;20072;-71
2024/01/15 09:28:26;;;;;;;51.28;28.30;;;128.10;2252.80;;;;;;5033219;28;20025;-65
2024/01/15 09:30:52;;;;;;;60.30;34.47;;;128.10;2252.80;;;;;;5032262;28;20069;-68
2024/01/15 09:33:17;;;;;;;40.35;23.08;;;128.10;2252.80;;;;;;5032971;28;20029;-70
2024/01/15 09:35:43;;;;;;;39.42;22.42;;;128.10;2252.80;;;;;;5033337;28;20034;-69
2024/01/15 09:38:09;;;;;;;49.58;28.75;;;128.10;2252.80;;;;;;5036311;28;20431;-69
2024/01/15 09:40:38;;;;;;;40.85;23.88;;;128.10;2252.80;;;;;;5036474;28;20030;-64
2024/01/15 09:43:05;;;;;;;65.07;36.25;;;128.00;2252.80;;;;;;5035881;28;20025;-64
2024/01/15 09:45:31;;;;;;;53.67;30.75;;;128.00;2252.80;;;;;;5036170;28;20041;-72
2024/01/15 09:47:58;;;;;;;63.35;34.35;;;103.30;2227.20;;;;;;5036252;28;20175;-66
2024/01/15 09:50:27;;;;;;;60.85;33.28;;;103.30;2227.20;;;;;;5036394;28;20026;-66
2024/01/15 09:52:53;;;;;;;74.03;38.20;;;103.20;2227.20;;;;;;5036057;28;20025;-64
2024/01/15 09:55:23;;;;;;;96.43;46.83;;;103.30;2227.20;;;;;;5028024;28;20032;-68
2024/01/15 09:57:50;;;;;;;148.98;73.53;;;103.30;2227.20;;;;;;5035106;28;20491;-65
2024/01/15 10:00:18;;;;;;;66.75;33.38;;;128.00;2252.80;;;;;;5035631;28;20092;-73
2024/01/15 10:02:44;;;;;;;50.42;28.30;;;128.00;2252.80;;;;;;5039642;28;20041;-65
2024/01/15 10:05:10;;;;;;;46.05;24.85;;;128.10;2252.80;;;;;;5035957;28;20050;-64
2024/01/15 10:07:37;;;;;;;62.30;36.40;;;128.10;2252.80;;;;;;5036783;28;20022;-74
2024/01/15 10:10:07;;;;;;;54.10;30.33;;;128.20;2252.80;;;;;;5036017;28;20041;-74
2024/01/15 10:12:33;;;;;;;53.20;30.65;;;128.20;2252.80;;;;;;5042084;28;20048;-65
2024/01/15 10:14:59;;;;;;;57.45;31.33;;;128.30;2252.80;;;;;;5035754;28;20476;-73
2024/01/15 10:17:27;;;;;;;50.33;28.92;;;128.30;2252.80;;;;;;5047438;28;20029;-64
2024/01/15 10:19:53;;;;;;;51.15;30.60;;;128.30;2252.80;;;;;;5055977;28;20047;-65
2024/01/15 10:22:19;;;;;;;52.78;31.52;;;128.30;2252.80;;;;;;5053173;28;20037;-64
2024/01/15 10:24:47;;;;;;;51.58;31.65;;;128.40;2252.80;;;;;;5055732;28;20044;-68
2024/01/15 10:27:13;;;;;;;51.33;32.22;;;128.50;2252.80;;;;;;5055086;28;20037;-66
2024/01/15 10:29:41;;;;;;;61.17;35.28;;;128.60;2252.80;;;;;;5055372;28;20032;-65
2024/01/15 10:32:09;;;;;;;52.72;27.65;;;128.60;2252.80;;;;;;5047130;28;20025;-65
2024/01/15 10:34:39;;;;;;;50.45;25.75;;;128.40;2252.80;;;;;;5034570;28;20040;-67
2024/01/15 10:37:06;;;;;;;48.83;26.85;;;128.10;2252.80;;;;;;5035482;28;20053;-64
2024/01/15 10:39:32;;;;;;;50.97;28.25;;;103.20;2227.20;;;;;;5035123;28;20030;-65
2024/01/15 10:41:58;;;;;;;62.67;32.92;;;103.00;2227.20;;;;;;5048203;28;20024;-72
2024/01/15 10:44:25;;;;;;;63.72;34.47;;;102.90;2227.20;;;;;;5055192;28;20029;-69
2024/01/15 10:46:51;;;;;;;68.97;36.03;;;102.90;2227.20;;;;;;5055005;28;20079;-68
2024/01/15 10:49:19;;;;;;;70.00;36.33;;;102.80;2227.20;;;;;;5049477;28;20024;-64
2024/01/15 10:51:46;;;;;;;58.08;31.27;;;102.80;2227.20;;;;;;5046739;28;20108;-64
2024/01/15 10:54:13;;;;;;;57.60;31.92;;;102.70;2227.20;;;;;;5046514;28;20391;-65
2024/01/15 10:56:40;;;;;;;60.47;32.22;;;102.80;2227.20;;;;;;5049011;28;20033;-71
2024/01/15 10:59:08;;;;;;;60.90;32.30;;;102.80;2227.20;;;;;;5037916;28;20057;-65
2024/01/15 11:01:34;;;;;;;56.40;30.65;;;102.70;2227.20;;;;;;5036439;28;20072;-65
2024/01/15 11:04:00;;;;;;;63.47;32.90;;;102.70;2227.20;;;;;;5036809;28;20480;-64
2024/01/15 11:06:40;;;;;;;61.53;33.50;;;102.70;2227.20;;;;;;5036742;28;20472;-65
2024/01/15 11:09:08;;;;;;;64.20;33.80;;;102.70;2227.20;;;;;;5036631;28;20468;-64
2024/01/15 11:11:40;;;;;;;57.97;31.67;;;102.60;2227.20;;;;;;5036427;28;20538;-64
2024/01/15 11:14:06;;;;;;;61.78;32.00;;;102.60;2227.20;;;;;;5036021;28;20479;-64
2024/01/15 11:17:05;;;;;;;60.05;31.45;;;102.70;2227.20;;;;;;5037040;28;20388;-66
2024/01/15 11:19:59;;;;;;;57.78;31.17;;;102.40;2227.20;;;;;;5036169;28;20500;-65
2024/01/15 11:22:46;;;;;;;59.03;30.45;;;102.40;2227.20;;;;;;5034847;28;20460;-64
2024/01/15 11:25:19;;;;;;;53.25;26.77;;;102.40;2227.20;;;;;;5036073;28;20526;-64
2024/01/15 11:27:52;;;;;;;50.63;27.90;;;77.70;2227.20;;;;;;5036319;28;20583;-64
2024/01/15 11:30:22;;;;;;;53.47;28.10;;;77.70;2227.20;;;;;;5036290;28;20487;-64
2024/01/15 11:32:48;;;;;;;46.50;25.58;;;77.60;2227.20;;;;;;5036146;28;20457;-65
2024/01/15 11:35:14;;;;;;;44.25;22.75;;;77.60;2227.20;;;;;;5036814;28;20040;-63
2024/01/15 11:37:55;;;;;;;43.38;23.08;;;77.60;2227.20;;;;;;5034440;28;20037;-73
2024/01/15 11:40:38;;;;;;;46.03;23.45;;;77.60;2227.20;;;;;;5037566;28;20036;-63
2024/01/15 11:43:06;;;;;;;41.95;21.15;;;77.60;2227.20;;;;;;5054233;28;20411;-65
2024/01/15 11:45:33;;;;;;;42.53;22.17;;;77.60;2227.20;;;;;;5041068;28;20439;-73
2024/01/15 11:48:15;;;;;;;39.97;21.15;;;77.60;2227.20;;;;;;5034601;28;20091;-65
2024/01/15 11:50:46;;;;;;;47.22;24.95;;;77.60;2227.20;;;;;;5036349;28;20060;-70
2024/01/15 11:53:35;;;;;;;41.00;20.75;;;77.60;2227.20;;;;;;5032759;28;20041;-65
2024/01/15 11:56:02;;;;;;;94.82;45.65;;;77.60;2227.20;;;;;;5033841;28;20048;-65
2024/01/15 11:58:29;;;;;;;36.90;20.85;;;77.60;2227.20;;;;;;5031806;28;20469;-64
2024/01/15 12:00:55;;;;;;;41.58;22.15;;;77.60;2227.20;;;;;;5032154;28;20049;-64
2024/01/15 12:03:22;;;;;;;35.92;19.42;;;77.60;2227.20;;;;;;5048507;28;20017;-65
2024/01/15 12:05:48;;;;;;;36.42;18.83;;;77.60;2227.20;;;;;;5046101;28;20033;-66
2024/01/15 12:08:13;;;;;;;34.78;18.60;;;77.60;2227.20;;;;;;5032209;28;20044;-64
2024/01/15 12:10:40;;;;;;;33.97;17.98;;;77.50;2227.20;;;;;;5032833;28;20116;-65
2024/01/15 12:13:14;;;;;;;33.13;17.92;;;77.50;2227.20;;;;;;5035786;28;20030;-66